createdAt,value
2022-11-08T00:01:47.713Z,102109.13
2022-11-08T00:04:18.069Z,102111.13
2022-11-08T00:07:07.335Z,102111.59
2022-11-08T00:09:57.099Z,102119.78
2022-11-08T00:12:44.472Z,102120.41
2022-11-08T00:15:13.516Z,102110.38
2022-11-08T00:17:41.711Z,102113.63
2022-11-08T00:20:11.380Z,102115.50
2022-11-08T00:22:40.615Z,102114.94
2022-11-08T00:25:10.692Z,102112.75
2022-11-08T00:27:42.296Z,102107.91
2022-11-08T00:30:11.506Z,102109.44
2022-11-08T00:32:39.513Z,102105.16
2022-11-08T00:35:08.611Z,102106.78
2022-11-08T00:37:36.557Z,102116.09
2022-11-08T00:40:05.629Z,102096.25
2022-11-08T00:42:33.687Z,102099.38
2022-11-08T00:45:02.967Z,102102.72
2022-11-08T00:47:32.593Z,102102.22
2022-11-08T00:50:02.300Z,102103.53
2022-11-08T00:52:30.502Z,102097.94
2022-11-08T00:55:00.760Z,102097.59
2022-11-08T00:57:41.138Z,102102.50
2022-11-08T01:00:18.496Z,102106.75
2022-11-08T01:02:46.477Z,102118.44
2022-11-08T01:05:14.855Z,102100.34
2022-11-08T01:07:44.050Z,102108.47
2022-11-08T01:10:12.535Z,102104.88
2022-11-08T01:12:45.439Z,102108.75
2022-11-08T01:15:13.725Z,102101.00
2022-11-08T01:17:44.675Z,102099.66
2022-11-08T01:20:12.661Z,102099.94
2022-11-08T01:22:41.832Z,102092.53
2022-11-08T01:25:09.769Z,102100.25
2022-11-08T01:27:39.390Z,102100.06
2022-11-08T01:30:10.455Z,102102.59
2022-11-08T01:32:39.358Z,102105.06
2022-11-08T01:35:10.604Z,102105.44
2022-11-08T01:37:42.219Z,102108.66
2022-11-08T01:40:11.148Z,102109.81
2022-11-08T01:42:40.291Z,102107.25
2022-11-08T01:45:12.026Z,102115.31
2022-11-08T01:47:41.197Z,102118.50
2022-11-08T01:50:16.179Z,102112.25
2022-11-08T01:52:54.194Z,102106.00
2022-11-08T01:55:36.043Z,102109.03
2022-11-08T01:58:21.823Z,102110.56
2022-11-08T02:00:52.802Z,102100.69
2022-11-08T02:03:23.152Z,102109.06
2022-11-08T02:05:52.721Z,102107.34
2022-11-08T02:08:34.585Z,102111.63
2022-11-08T02:11:05.851Z,102108.22
2022-11-08T02:13:39.294Z,102112.56
2022-11-08T02:16:16.708Z,102103.81
2022-11-08T02:18:49.077Z,102108.13
2022-11-08T02:21:42.337Z,102103.19
2022-11-08T02:24:13.493Z,102103.94
2022-11-08T02:26:44.804Z,102109.25
2022-11-08T02:29:34.521Z,102110.56
2022-11-08T02:32:06.382Z,102112.06
2022-11-08T02:34:44.359Z,102116.72
2022-11-08T02:37:17.034Z,102120.13
2022-11-08T02:39:48.065Z,102115.31
2022-11-08T02:42:19.241Z,102115.31
2022-11-08T02:44:48.795Z,102115.50
2022-11-08T02:47:17.175Z,102114.34
2022-11-08T02:49:45.453Z,102116.09
2022-11-08T02:52:14.594Z,102120.22
2022-11-08T02:54:42.522Z,102117.19
2022-11-08T02:57:12.386Z,102112.25
2022-11-08T02:59:41.388Z,102124.22
2022-11-08T03:02:10.081Z,102123.19
2022-11-08T03:04:40.220Z,102129.06
2022-11-08T03:07:10.096Z,102115.41
2022-11-08T03:09:39.501Z,102112.47
2022-11-08T03:12:07.710Z,102117.78
2022-11-08T03:14:41.744Z,102115.22
2022-11-08T03:17:11.927Z,102115.84
2022-11-08T03:19:39.881Z,102117.97
2022-11-08T03:22:08.831Z,102118.91
2022-11-08T03:24:38.353Z,102117.03
2022-11-08T03:27:07.557Z,102114.47
2022-11-08T03:29:39.107Z,102118.16
2022-11-08T03:32:09.501Z,102115.41
2022-11-08T03:34:37.497Z,102119.59
2022-11-08T03:37:11.126Z,102124.59
2022-11-08T03:39:40.266Z,102123.56
2022-11-08T03:42:09.774Z,102129.63
2022-11-08T03:44:39.270Z,102122.41
2022-11-08T03:47:10.636Z,102120.13
2022-11-08T03:49:43.340Z,102114.19
2022-11-08T03:52:11.522Z,102122.16
2022-11-08T03:54:40.613Z,102118.34
2022-11-08T03:57:09.463Z,102115.22
2022-11-08T03:59:38.776Z,102113.09
2022-11-08T04:02:08.760Z,102113.97
2022-11-08T04:04:38.505Z,102118.91
2022-11-08T04:07:08.519Z,102113.09
2022-11-08T04:09:37.541Z,102115.50
2022-11-08T04:12:27.039Z,102112.00
2022-11-08T04:15:16.240Z,102109.44
2022-11-08T04:18:04.985Z,102109.16
2022-11-08T04:21:06.376Z,102114.38
2022-11-08T04:23:37.390Z,102112.66
2022-11-08T04:26:08.640Z,102108.97
2022-11-08T04:28:38.722Z,102111.41
2022-11-08T04:31:11.674Z,102111.31
2022-11-08T04:33:40.682Z,102111.31
2022-11-08T04:36:17.751Z,102106.31
2022-11-08T04:38:52.244Z,102101.97
2022-11-08T04:41:26.239Z,102110.19
2022-11-08T04:43:56.379Z,102103.34
2022-11-08T04:46:29.620Z,102110.78
2022-11-08T04:49:00.516Z,102097.59
2022-11-08T04:51:31.105Z,102102.41
2022-11-08T04:54:02.751Z,102100.50
2022-11-08T04:56:32.434Z,102102.13
2022-11-08T04:59:01.808Z,102106.56
2022-11-08T05:01:33.610Z,102108.13
2022-11-08T05:04:03.205Z,102105.25
2022-11-08T05:06:32.191Z,102112.47
2022-11-08T05:09:00.939Z,102106.09
2022-11-08T05:11:30.793Z,102111.13
2022-11-08T05:13:59.944Z,102111.72
2022-11-08T05:16:32.696Z,102109.03
2022-11-08T05:19:03.453Z,102117.97
2022-11-08T05:21:52.316Z,102111.28
2022-11-08T05:24:21.750Z,102110.53
2022-11-08T05:26:53.117Z,102113.69
2022-11-08T05:29:21.803Z,102106.56
2022-11-08T05:31:51.208Z,102117.19
2022-11-08T05:34:19.629Z,102108.66
2022-11-08T05:36:48.809Z,102114.44
2022-11-08T05:39:18.521Z,102124.88
2022-11-08T05:41:47.532Z,102124.22
2022-11-08T05:44:15.567Z,102120.63
2022-11-08T05:46:45.704Z,102126.91
2022-11-08T05:49:14.383Z,102125.88
2022-11-08T05:51:42.537Z,102119.03
2022-11-08T05:54:13.373Z,102128.19
2022-11-08T05:56:41.573Z,102124.72
2022-11-08T05:59:11.060Z,102128.44
2022-11-08T06:01:41.568Z,102131.94
2022-11-08T06:04:09.968Z,102132.72
2022-11-08T06:06:38.560Z,102132.13
2022-11-08T06:09:10.614Z,102135.47
2022-11-08T06:11:39.899Z,102132.09
2022-11-08T06:14:13.474Z,102134.69
2022-11-08T06:16:42.715Z,102119.00
2022-11-08T06:19:11.538Z,102126.78
2022-11-08T06:21:40.732Z,102121.66
2022-11-08T06:24:09.614Z,102120.19
2022-11-08T06:26:39.432Z,102122.97
2022-11-08T06:29:07.576Z,102121.88
2022-11-08T06:31:40.500Z,102114.44
2022-11-08T06:34:12.278Z,102111.97
2022-11-08T06:36:41.669Z,102111.97
2022-11-08T06:39:10.884Z,102124.72
2022-11-08T06:41:39.581Z,102121.28
2022-11-08T06:44:08.326Z,102119.75
2022-11-08T06:46:37.632Z,102117.84
2022-11-08T06:49:06.613Z,102124.53
2022-11-08T06:51:36.109Z,102122.19
2022-11-08T06:54:08.776Z,102123.50
2022-11-08T06:56:39.328Z,102132.31
2022-11-08T06:59:07.735Z,102135.41
2022-11-08T07:01:39.938Z,102147.19
2022-11-08T07:04:16.586Z,102140.03
2022-11-08T07:06:46.047Z,102145.81
2022-11-08T07:09:14.456Z,102141.22
2022-11-08T07:11:46.058Z,102142.84
2022-11-08T07:14:15.635Z,102137.59
2022-11-08T07:16:43.739Z,102129.88
2022-11-08T07:19:15.143Z,102136.78
2022-11-08T07:21:44.526Z,102132.09
2022-11-08T07:24:13.589Z,102127.81
2022-11-08T07:26:43.659Z,102131.25
2022-11-08T07:29:15.993Z,102126.09
2022-11-08T07:31:45.676Z,102137.88
2022-11-08T07:34:14.691Z,102133.91
2022-11-08T07:36:44.270Z,102130.13
2022-11-08T07:39:16.647Z,102128.31
2022-11-08T07:41:49.384Z,102120.34
2022-11-08T07:44:19.152Z,102129.91
2022-11-08T07:46:47.810Z,102133.88
2022-11-08T07:49:19.269Z,102132.31
2022-11-08T07:51:51.397Z,102129.00
2022-11-08T07:54:24.534Z,102133.84
2022-11-08T07:57:06.360Z,102126.50
2022-11-08T07:59:36.089Z,102135.94
2022-11-08T08:02:06.677Z,102126.53
2022-11-08T08:04:38.654Z,102133.63
2022-11-08T08:07:08.441Z,102142.38
2022-11-08T08:09:36.593Z,102148.13
2022-11-08T08:12:15.381Z,102138.72
2022-11-08T08:14:45.853Z,102134.34
2022-11-08T08:17:17.260Z,102135.22
2022-11-08T08:20:08.286Z,102130.19
2022-11-08T08:22:53.937Z,102123.50
2022-11-08T08:25:22.982Z,102127.88
2022-11-08T08:27:55.256Z,102126.38
2022-11-08T08:30:25.145Z,102129.78
2022-11-08T08:33:26.967Z,102123.09
2022-11-08T08:35:54.361Z,102118.28
2022-11-08T08:38:23.639Z,102123.22
2022-11-08T08:40:52.618Z,102131.94
2022-11-08T08:43:21.743Z,102125.78
2022-11-08T08:45:51.468Z,102130.78
2022-11-08T08:48:19.487Z,102130.69
2022-11-08T08:50:51.416Z,102121.84
2022-11-08T08:53:19.887Z,102117.47
2022-11-08T08:55:48.742Z,102118.53
2022-11-08T08:58:16.658Z,102118.53
2022-11-08T09:03:36.256Z,102117.47
2022-11-08T09:06:05.692Z,102118.13
2022-11-08T09:08:33.694Z,102115.47
2022-11-08T09:11:03.773Z,102119.28
2022-11-08T09:13:32.811Z,102115.00
2022-11-08T09:16:03.062Z,102114.72
2022-11-08T09:18:32.576Z,102116.72
2022-11-08T09:21:05.376Z,102112.25
2022-11-08T09:23:37.129Z,102116.94
2022-11-08T09:26:06.507Z,102114.69
2022-11-08T09:28:36.528Z,102112.25
2022-11-08T09:31:07.393Z,102115.03
2022-11-08T09:33:38.064Z,102106.38
2022-11-08T09:36:08.021Z,102106.28
2022-11-08T09:38:36.871Z,102113.53
2022-11-08T09:41:36.297Z,102117.03
2022-11-08T09:44:46.282Z,102111.91
2022-11-08T09:47:27.493Z,102106.94
2022-11-08T09:50:20.140Z,102094.66
2022-11-08T09:53:13.030Z,102098.84
2022-11-08T09:56:00.195Z,102102.44
2022-11-08T09:58:48.076Z,102100.19
2022-11-08T10:01:19.563Z,102099.34
2022-11-08T10:03:54.367Z,102088.06
2022-11-08T10:06:41.389Z,102086.13
2022-11-08T10:09:22.277Z,102080.16
2022-11-08T10:12:43.646Z,102082.78
2022-11-08T10:15:37.034Z,102075.88
2022-11-08T10:18:42.427Z,102082.69
2022-11-08T10:21:46.685Z,102076.59
2022-11-08T10:24:35.631Z,102067.91
2022-11-08T10:27:15.309Z,102064.34
2022-11-08T10:29:46.551Z,102065.22
2022-11-08T10:32:23.095Z,102056.66
2022-11-08T10:35:22.560Z,102058.38
2022-11-08T10:37:52.491Z,102059.66
2022-11-08T10:40:46.316Z,102063.75
2022-11-08T10:43:42.710Z,102053.31
2022-11-08T10:46:37.977Z,102059.66
2022-11-08T10:49:16.800Z,102053.38
2022-11-08T10:51:48.766Z,102058.41
2022-11-08T10:54:57.207Z,102049.66
2022-11-08T10:57:31.902Z,102036.72
2022-11-08T11:00:28.297Z,102042.81
2022-11-08T11:03:16.502Z,102035.34
2022-11-08T11:06:05.464Z,102041.00
2022-11-08T11:08:33.913Z,102035.13
2022-11-08T11:11:36.592Z,102039.50
2022-11-08T11:14:22.618Z,102036.78
2022-11-08T11:17:01.737Z,102030.72
2022-11-08T11:19:30.410Z,102033.69
2022-11-08T11:22:09.856Z,102029.47
2022-11-08T11:24:52.061Z,102042.56
2022-11-08T11:27:36.508Z,102031.09
2022-11-08T11:30:33.987Z,102040.13
2022-11-08T11:33:26.891Z,102037.50
2022-11-08T11:36:00.402Z,102040.56
2022-11-08T11:38:53.673Z,102038.81
2022-11-08T11:41:38.913Z,102038.00
2022-11-08T11:44:17.537Z,102040.41
2022-11-08T11:47:15.107Z,102032.69
2022-11-08T11:49:45.629Z,102033.66
2022-11-08T11:52:18.705Z,102042.06
2022-11-08T11:54:52.843Z,102039.66
2022-11-08T11:57:47.131Z,102050.50
2022-11-08T12:00:16.401Z,102049.63
2022-11-08T12:03:22.041Z,102048.78
2022-11-08T12:06:09.719Z,102052.75
2022-11-08T12:08:59.594Z,102047.06
2022-11-08T12:12:11.222Z,102043.84
2022-11-08T12:14:54.750Z,102052.41
2022-11-08T12:18:40.973Z,102047.88
2022-11-08T12:21:15.229Z,102045.72
2022-11-08T12:24:14.302Z,102044.41
2022-11-08T12:27:11.633Z,102047.84
2022-11-08T12:30:13.298Z,102046.44
2022-11-08T12:33:22.757Z,102047.97
2022-11-08T12:36:16.587Z,102042.81
2022-11-08T12:39:23.395Z,102033.69
2022-11-08T12:42:19.927Z,102031.13
2022-11-08T12:44:48.481Z,102033.53
2022-11-08T12:47:40.188Z,102028.69
2022-11-08T12:50:41.335Z,102036.72
2022-11-08T12:53:37.291Z,102022.66
2022-11-08T12:56:19.843Z,102039.16
2022-11-08T12:58:51.686Z,102032.34
2022-11-08T13:01:22.235Z,102033.91
2022-11-08T13:04:18.982Z,102032.25
2022-11-08T13:07:06.994Z,102033.34
2022-11-08T13:10:12.676Z,102030.41
2022-11-08T13:13:09.119Z,102035.69
2022-11-08T13:15:57.437Z,102030.34
2022-11-08T13:18:34.486Z,102037.13
2022-11-08T13:21:28.123Z,102041.13
2022-11-08T13:24:09.961Z,102037.47
2022-11-08T13:26:55.736Z,102037.81
2022-11-08T13:29:28.570Z,102036.81
2022-11-08T13:32:02.467Z,102033.03
2022-11-08T13:34:54.775Z,102029.88
2022-11-08T13:41:03.528Z,102035.28
2022-11-08T13:43:40.676Z,102034.34
2022-11-08T13:46:27.203Z,102040.84
2022-11-08T13:49:06.575Z,102040.84
2022-11-08T13:51:40.175Z,102044.75
2022-11-08T13:54:27.192Z,102039.53
2022-11-08T13:57:01.363Z,102039.44
2022-11-08T13:59:32.905Z,102039.44
2022-11-08T14:02:35.305Z,102043.31
2022-11-08T14:05:24.573Z,102048.22
2022-11-08T14:08:16.533Z,102046.75
2022-11-08T14:10:57.600Z,102043.22
2022-11-08T14:14:02.543Z,102038.44
2022-11-08T14:16:42.841Z,102052.19
2022-11-08T14:19:39.982Z,102047.72
2022-11-08T14:22:19.482Z,102041.94
2022-11-08T14:24:48.947Z,102048.22
2022-11-08T14:27:34.980Z,102050.28
2022-11-08T14:30:06.728Z,102055.91
2022-11-08T14:32:35.964Z,102055.25
2022-11-08T14:35:26.980Z,102058.66
2022-11-08T14:37:56.276Z,102055.06
2022-11-08T14:40:29.298Z,102050.13
2022-11-08T14:42:58.480Z,102055.91
2022-11-08T14:45:29.286Z,102043.00
2022-11-08T14:48:05.335Z,102048.31
2022-11-08T14:50:36.557Z,102049.16
2022-11-08T14:53:32.980Z,102044.03
2022-11-08T14:56:21.555Z,102054.03
2022-11-08T14:58:52.940Z,102048.50
2022-11-08T15:01:26.990Z,102059.97
2022-11-08T15:04:05.225Z,102058.81
2022-11-08T15:06:56.426Z,102059.97
2022-11-08T15:09:35.483Z,102060.06
2022-11-08T15:12:17.454Z,102073.72
2022-11-08T15:14:59.225Z,102071.56
2022-11-08T15:17:39.034Z,102063.28
2022-11-08T15:20:22.512Z,102065.75
2022-11-08T15:22:56.318Z,102070.50
2022-11-08T15:25:35.617Z,102076.09
2022-11-08T15:28:23.612Z,102073.66
2022-11-08T15:30:59.410Z,102072.81
2022-11-08T15:33:31.130Z,102077.50
2022-11-08T15:36:00.563Z,102080.44
2022-11-08T15:38:33.757Z,102083.41
2022-11-08T15:41:06.326Z,102080.44
2022-11-08T15:43:40.667Z,102086.16
2022-11-08T15:46:29.306Z,102082.00
2022-11-08T15:48:59.528Z,102084.69
2022-11-08T15:51:29.214Z,102078.88
2022-11-08T15:53:58.497Z,102082.97
2022-11-08T15:56:26.502Z,102086.75
2022-11-08T15:58:55.884Z,102080.69
2022-11-08T16:01:24.564Z,102081.84
2022-11-08T16:03:53.156Z,102082.59
2022-11-08T16:06:24.430Z,102082.75
2022-11-08T16:08:53.259Z,102082.69
2022-11-08T16:11:23.812Z,102082.59
2022-11-08T16:13:52.876Z,102078.22
2022-11-08T16:16:22.213Z,102072.72
2022-11-08T16:18:50.516Z,102084.59
2022-11-08T16:21:20.074Z,102083.00
2022-11-08T16:23:49.828Z,102079.94
2022-11-08T16:26:23.993Z,102080.50
2022-11-08T16:28:53.126Z,102088.00
2022-11-08T16:31:24.965Z,102087.34
2022-11-08T16:33:58.561Z,102088.97
2022-11-08T16:36:28.435Z,102082.88
2022-11-08T16:38:59.331Z,102084.59
2022-11-08T16:41:36.628Z,102081.31
2022-11-08T16:44:10.811Z,102078.06
2022-11-08T16:46:43.403Z,102081.88
2022-11-08T16:49:21.695Z,102090.50
2022-11-08T16:51:50.822Z,102082.69
2022-11-08T16:54:24.165Z,102079.38
2022-11-08T16:57:03.402Z,102087.09
2022-11-08T16:59:37.596Z,102087.38
2022-11-08T17:02:26.861Z,102102.78
2022-11-08T17:04:57.467Z,102104.00
2022-11-08T17:07:28.534Z,102093.63
2022-11-08T17:09:57.582Z,102081.50
2022-11-08T17:12:26.955Z,102096.53
2022-11-08T17:15:00.504Z,102111.94
2022-11-08T17:17:45.916Z,102101.44
2022-11-08T17:20:22.826Z,102102.31
2022-11-08T17:22:52.689Z,102097.28
2022-11-08T17:25:23.940Z,102102.78
2022-11-08T17:27:53.314Z,102104.50
2022-11-08T17:30:26.466Z,102108.25
2022-11-08T17:32:57.365Z,102102.97
2022-11-08T17:35:25.551Z,102101.25
2022-11-08T17:37:54.692Z,102105.97
2022-11-08T17:40:22.398Z,102099.09
2022-11-08T17:42:52.709Z,102100.03
2022-11-08T17:45:20.739Z,102103.72
2022-11-08T17:47:51.570Z,102102.00
2022-11-08T17:50:19.525Z,102094.13
2022-11-08T17:52:52.459Z,102095.34
2022-11-08T17:55:20.686Z,102092.91
2022-11-08T17:57:51.646Z,102086.09
2022-11-08T18:00:19.604Z,102084.53
2022-11-08T18:02:50.020Z,102080.34
2022-11-08T18:05:18.691Z,102079.22
2022-11-08T18:07:49.942Z,102091.13
2022-11-08T18:10:21.102Z,102093.63
2022-11-08T18:13:12.085Z,102091.41
2022-11-08T18:15:40.954Z,102095.59
2022-11-08T18:18:12.040Z,102093.47
2022-11-08T18:20:41.269Z,102090.06
2022-11-08T18:23:13.498Z,102096.13
2022-11-08T18:26:04.611Z,102091.41
2022-11-08T18:28:35.716Z,102092.09
2022-11-08T18:34:20.826Z,102096.03
2022-11-08T18:36:51.944Z,102097.09
2022-11-08T18:39:20.542Z,102100.69
2022-11-08T18:41:50.525Z,102105.38
2022-11-08T18:44:18.970Z,102092.19
2022-11-08T18:46:58.148Z,102094.00
2022-11-08T18:49:29.467Z,102097.94
2022-11-08T18:51:59.759Z,102094.25
2022-11-08T18:54:33.963Z,102099.09
2022-11-08T18:57:03.293Z,102112.66
2022-11-08T18:59:42.638Z,102113.81
2022-11-08T19:02:14.978Z,102109.84
2022-11-08T19:04:45.183Z,102112.28
2022-11-08T19:07:16.658Z,102110.19
2022-11-08T19:09:45.818Z,102106.69
2022-11-08T19:12:14.546Z,102110.28
2022-11-08T19:14:43.701Z,102117.03
2022-11-08T19:17:16.498Z,102116.94
2022-11-08T19:19:45.714Z,102115.50
2022-11-08T19:22:13.863Z,102121.19
2022-11-08T19:24:43.113Z,102123.28
2022-11-08T19:27:11.599Z,102114.56
2022-11-08T19:29:39.566Z,102115.97
2022-11-08T19:32:08.643Z,102122.63
2022-11-08T19:34:37.672Z,102114.25
2022-11-08T19:37:07.107Z,102110.97
2022-11-08T19:39:36.369Z,102114.56
2022-11-08T19:42:08.470Z,102109.78
2022-11-08T19:44:37.736Z,102113.19
2022-11-08T19:47:08.036Z,102122.88
2022-11-08T19:49:37.348Z,102122.78
2022-11-08T19:52:06.772Z,102129.13
2022-11-08T19:54:35.718Z,102127.72
2022-11-08T19:57:05.784Z,102133.38
2022-11-08T19:59:36.002Z,102127.03
2022-11-08T20:02:04.723Z,102135.38
2022-11-08T20:04:35.242Z,102131.00
2022-11-08T20:07:06.421Z,102127.59
2022-11-08T20:09:35.876Z,102127.47
2022-11-08T20:12:06.478Z,102135.53
2022-11-08T20:14:36.584Z,102135.66
2022-11-08T20:17:09.070Z,102134.22
2022-11-08T20:19:38.691Z,102131.97
2022-11-08T20:22:10.620Z,102137.72
2022-11-08T20:24:38.552Z,102141.38
2022-11-08T20:27:07.566Z,102132.06
2022-11-08T20:29:35.809Z,102141.16
2022-11-08T20:32:04.674Z,102137.03
2022-11-08T20:34:34.244Z,102138.91
2022-11-08T20:37:02.446Z,102134.97
2022-11-08T20:39:31.815Z,102142.78
2022-11-08T20:42:01.852Z,102132.31
2022-11-08T20:44:30.699Z,102128.31
2022-11-08T20:47:05.498Z,102129.25
2022-11-08T20:49:36.311Z,102132.94
2022-11-08T20:52:04.469Z,102135.19
2022-11-08T20:54:33.296Z,102137.03
2022-11-08T20:57:01.489Z,102146.78
2022-11-08T20:59:31.985Z,102135.44
2022-11-08T21:02:00.532Z,102136.84
2022-11-08T21:04:28.418Z,102145.56
2022-11-08T21:07:42.581Z,102139.84
2022-11-08T21:09:50.264Z,102147.63
2022-11-08T21:12:20.479Z,102144.22
2022-11-08T21:14:50.843Z,102146.00
2022-11-08T21:17:22.244Z,102147.63
2022-11-08T21:19:52.167Z,102143.66
2022-11-08T21:22:23.390Z,102147.41
2022-11-08T21:24:53.436Z,102151.94
2022-11-08T21:27:27.070Z,102157.25
2022-11-08T21:29:58.333Z,102160.75
2022-11-08T21:32:26.385Z,102152.72
2022-11-08T21:34:55.582Z,102159.13
2022-11-08T21:37:24.342Z,102159.47
2022-11-08T21:39:52.455Z,102159.16
2022-11-08T21:42:21.245Z,102160.97
2022-11-08T21:44:49.370Z,102169.44
2022-11-08T21:47:18.235Z,102168.31
2022-11-08T21:49:46.686Z,102167.75
2022-11-08T21:52:15.804Z,102162.44
2022-11-08T21:54:45.099Z,102162.78
2022-11-08T21:57:13.491Z,102162.94
2022-11-08T21:59:42.887Z,102163.22
2022-11-08T22:02:13.485Z,102159.34
2022-11-08T22:04:42.497Z,102158.78
2022-11-08T22:07:10.544Z,102174.59
2022-11-08T22:09:41.286Z,102168.84
2022-11-08T22:12:09.517Z,102172.19
2022-11-08T22:14:39.478Z,102170.31
2022-11-08T22:17:09.403Z,102174.59
2022-11-08T22:19:40.700Z,102174.59
2022-11-08T22:22:11.926Z,102176.63
2022-11-08T22:24:40.888Z,102183.28
2022-11-08T22:27:12.026Z,102182.00
2022-11-08T22:29:40.497Z,102174.94
2022-11-08T22:32:09.705Z,102172.19
2022-11-08T22:34:39.410Z,102182.53
2022-11-08T22:37:08.724Z,102179.91
2022-11-08T22:39:37.450Z,102193.56
2022-11-08T22:42:06.194Z,102185.94
2022-11-08T22:44:34.403Z,102181.59
2022-11-08T22:47:02.533Z,102181.59
2022-11-08T22:49:31.609Z,102185.44
2022-11-08T22:51:59.359Z,102179.53
2022-11-08T22:54:28.071Z,102169.88
2022-11-08T22:56:56.452Z,102163.06
2022-11-08T22:59:24.817Z,102162.63
2022-11-08T23:01:53.819Z,102171.84
2022-11-08T23:04:21.330Z,102163.13
2022-11-08T23:06:49.505Z,102165.25
2022-11-08T23:09:18.732Z,102166.09
2022-11-08T23:12:04.938Z,102173.88
2022-11-08T23:14:57.183Z,102173.53
2022-11-08T23:17:25.459Z,102169.84
2022-11-08T23:20:16.863Z,102168.06
2022-11-08T23:23:04.261Z,102182.25
2022-11-08T23:25:33.806Z,102175.75
2022-11-08T23:28:19.967Z,102181.22
2022-11-08T23:31:09.228Z,102177.13
2022-11-08T23:33:43.896Z,102181.91
2022-11-08T23:36:12.474Z,102181.91
2022-11-08T23:38:41.720Z,102186.53
2022-11-08T23:41:29.977Z,102180.75
2022-11-08T23:44:17.982Z,102186.19
2022-11-08T23:46:46.377Z,102190.47
2022-11-08T23:49:15.451Z,102194.72
2022-11-08T23:51:43.643Z,102195.59
2022-11-08T23:54:12.804Z,102183.28
2022-11-08T23:56:41.852Z,102179.91
2022-11-08T23:59:11.563Z,102180.22
